Pagina principale
METAR-TAF:

METAR-TAF

Aeroporti :

Catania, Italia

Aeroporto di Catania-Fontanarossa

latitudine: 37-28N, longitudine: 015-03E, altezza: 11 m

Osservazione

Il bollettino è stato emesso 38 minuti fa, alle 09:50 UTC
Vento 9 kt da est
Temperature 24°C
Umidità 44%
Pressione 1019 hPa
Visibilità 10 km o più
nessuna nube inferiore a 1500 m e nessun cumulonembo

METAR: LICC 210950Z 09009KT CAVOK 24/11 Q1019

Ora: 12:28 (10:28 UTC)

Previsione

Il bollettino è stato emesso 5 ore e 28 minuti fa, alle 05:00 UTC
Previsione valida dal 21 alle 06 UTC al 22 alle 06 UTC
Vento 10 kt da ovest
Visibilità 10 km o più
Poco nuvoloso ad un'altezza di 4000 ft
Evoluzione graduale
dal 21 alle 09 UTC al 21 alle 11 UTC
Vento 10 kt da est/nord-est
Evoluzione graduale
dal 21 alle 18 UTC al 21 alle 20 UTC
Vento 7 kt da ovest/sud-ovest

TAF: LICC 210500Z 2106/2206 27010KT 9999 FEW040 BECMG 2109/2111 06010KT BECMG 2118/2120 25007KT

Osservazioni e previsioni meteorologiche di più di 4000 aeroporti (messaggi METAR e TAF).

Le stazioni disponibili sono rappresentate dai dischi gialli e rossi sulla carta.

Puntare il mouse per vedere il nome della stazione.

Clicca sopra per visualizzare le osservazioni e previsioni meteorologiche.

Per cambiare la mappa : fare clic sui pulsanti verdi con una croce nera per ingrandire, il pulsante verde con un trattino per diminuire, o sulla freccia verde per le mappe adiacenti.


METAR-TAF: